sensor_id;sensor_type;location;lat;lon;timestamp;pressure;altitude;pressure_sealevel;temperature;humidity
49055;BME280;35405;52.344;14.530;2023-02-18T07:27:08;100696.38;;;5.77;100.00
49055;BME280;35405;52.344;14.530;2023-02-18T07:29:34;100695.63;;;5.82;100.00
49055;BME280;35405;52.344;14.530;2023-02-18T07:31:59;100698.06;;;5.83;100.00
49055;BME280;35405;52.344;14.530;2023-02-18T07:34:24;100695.09;;;5.85;100.00
49055;BME280;35405;52.344;14.530;2023-02-18T07:36:49;100700.78;;;5.88;100.00
49055;BME280;35405;52.344;14.530;2023-02-18T07:39:14;100684.88;;;5.92;100.00
49055;BME280;35405;52.344;14.530;2023-02-18T07:41:44;100689.00;;;5.94;100.00
49055;BME280;35405;52.344;14.530;2023-02-18T07:44:09;100694.97;;;6.02;100.00
49055;BME280;35405;52.344;14.530;2023-02-18T07:46:38;100688.53;;;6.08;100.00
49055;BME280;35405;52.344;14.530;2023-02-18T07:49:03;100693.72;;;6.14;100.00
49055;BME280;35405;52.344;14.530;2023-02-18T07:51:28;100687.25;;;6.21;100.00
49055;BME280;35405;52.344;14.530;2023-02-18T07:53:53;100681.09;;;6.30;100.00
49055;BME280;35405;52.344;14.530;2023-02-18T07:56:18;100696.81;;;6.38;100.00
49055;BME280;35405;52.344;14.530;2023-02-18T07:58:43;100683.53;;;6.37;100.00
49055;BME280;35405;52.344;14.530;2023-02-18T08:01:10;100677.91;;;6.38;100.00
49055;BME280;35405;52.344;14.530;2023-02-18T08:03:36;100677.91;;;6.38;100.00
49055;BME280;35405;52.344;14.530;2023-02-18T08:06:01;100674.63;;;6.36;100.00
49055;BME280;35405;52.344;14.530;2023-02-18T08:08:28;100692.00;;;6.51;100.00
49055;BME280;35405;52.344;14.530;2023-02-18T08:10:54;100674.25;;;6.80;100.00
49055;BME280;35405;52.344;14.530;2023-02-18T08:13:19;100675.06;;;6.81;100.00
49055;BME280;35405;52.344;14.530;2023-02-18T08:15:44;100664.50;;;6.74;100.00
49055;BME280;35405;52.344;14.530;2023-02-18T08:18:17;100660.72;;;6.85;100.00
49055;BME280;35405;52.344;14.530;2023-02-18T08:20:43;100649.09;;;6.85;100.00
49055;BME280;35405;52.344;14.530;2023-02-18T08:23:08;100654.78;;;6.78;100.00
49055;BME280;35405;52.344;14.530;2023-02-18T08:25:34;100643.44;;;6.81;100.00
49055;BME280;35405;52.344;14.530;2023-02-18T08:27:59;100645.63;;;6.90;100.00
49055;BME280;35405;52.344;14.530;2023-02-18T08:30:30;100647.78;;;6.98;100.00
49055;BME280;35405;52.344;14.530;2023-02-18T08:32:55;100646.72;;;6.99;100.00
49055;BME280;35405;52.344;14.530;2023-02-18T08:35:21;100642.66;;;6.86;100.00
49055;BME280;35405;52.344;14.530;2023-02-18T08:37:46;100632.34;;;6.78;100.00
49055;BME280;35405;52.344;14.530;2023-02-18T08:40:11;100631.00;;;6.80;100.00
49055;BME280;35405;52.344;14.530;2023-02-18T08:42:37;100621.28;;;6.90;100.00
49055;BME280;35405;52.344;14.530;2023-02-18T08:45:03;100614.25;;;7.04;100.00
49055;BME280;35405;52.344;14.530;2023-02-18T08:47:28;100622.66;;;7.23;100.00
49055;BME280;35405;52.344;14.530;2023-02-18T08:49:54;100621.28;;;7.15;100.00
49055;BME280;35405;52.344;14.530;2023-02-18T08:52:19;100614.53;;;7.18;100.00
49055;BME280;35405;52.344;14.530;2023-02-18T08:54:44;100612.38;;;7.30;100.00
49055;BME280;35405;52.344;14.530;2023-02-18T08:57:09;100596.13;;;7.30;100.00
49055;BME280;35405;52.344;14.530;2023-02-18T08:59:34;100598.56;;;7.37;100.00
49055;BME280;35405;52.344;14.530;2023-02-18T09:02:00;100601.28;;;7.42;100.00
49055;BME280;35405;52.344;14.530;2023-02-18T09:04:25;100601.00;;;7.28;100.00
49055;BME280;35405;52.344;14.530;2023-02-18T09:06:50;100609.66;;;7.15;100.00
49055;BME280;35405;52.344;14.530;2023-02-18T09:09:16;100592.09;;;7.12;100.00
49055;BME280;35405;52.344;14.530;2023-02-18T09:11:41;100605.63;;;7.07;100.00
49055;BME280;35405;52.344;14.530;2023-02-18T09:14:07;100598.84;;;7.15;100.00
49055;BME280;35405;52.344;14.530;2023-02-18T09:16:32;100589.41;;;7.22;100.00
49055;BME280;35405;52.344;14.530;2023-02-18T09:18:57;100591.28;;;7.17;100.00
49055;BME280;35405;52.344;14.530;2023-02-18T09:21:23;100573.16;;;7.12;100.00
49055;BME280;35405;52.344;14.530;2023-02-18T09:23:48;100591.00;;;7.23;100.00
49055;BME280;35405;52.344;14.530;2023-02-18T09:26:15;100574.78;;;7.28;100.00
49055;BME280;35405;52.344;14.530;2023-02-18T09:28:41;100574.50;;;7.15;100.00
49055;BME280;35405;52.344;14.530;2023-02-18T09:31:16;100578.03;;;7.15;100.00
49055;BME280;35405;52.344;14.530;2023-02-18T09:33:44;100574.50;;;7.25;100.00
49055;BME280;35405;52.344;14.530;2023-02-18T09:36:09;100581.81;;;7.35;100.00
49055;BME280;35405;52.344;14.530;2023-02-18T09:38:35;100569.31;;;7.54;100.00
49055;BME280;35405;52.344;14.530;2023-02-18T09:41:02;100582.03;;;7.48;100.00
49055;BME280;35405;52.344;14.530;2023-02-18T09:45:53;100589.91;;;7.09;100.00
49055;BME280;35405;52.344;14.530;2023-02-18T09:48:21;100596.66;;;6.66;100.00
49055;BME280;35405;52.344;14.530;2023-02-18T09:50:49;100584.97;;;6.45;100.00
49055;BME280;35405;52.344;14.530;2023-02-18T09:53:16;100584.72;;;6.41;100.00
49055;BME280;35405;52.344;14.530;2023-02-18T09:55:41;100579.00;;;6.37;100.00
49055;BME280;35405;52.344;14.530;2023-02-18T09:58:15;100573.84;;;6.26;100.00
49055;BME280;35405;52.344;14.530;2023-02-18T10:00:43;100566.00;;;6.24;100.00
49055;BME280;35405;52.344;14.530;2023-02-18T10:03:22;100564.91;;;6.15;100.00
49055;BME280;35405;52.344;14.530;2023-02-18T10:06:07;100561.69;;;6.23;100.00
49055;BME280;35405;52.344;14.530;2023-02-18T10:08:35;100548.16;;;6.18;100.00
49055;BME280;35405;52.344;14.530;2023-02-18T10:11:00;100535.19;;;6.15;100.00
49055;BME280;35405;52.344;14.530;2023-02-18T10:13:32;100529.53;;;6.11;100.00
49055;BME280;35405;52.344;14.530;2023-02-18T10:15:58;100530.34;;;6.17;100.00
49055;BME280;35405;52.344;14.530;2023-02-18T10:18:31;100543.59;;;6.18;100.00
49055;BME280;35405;52.344;14.530;2023-02-18T10:21:05;100520.38;;;6.17;100.00
49055;BME280;35405;52.344;14.530;2023-02-18T10:23:31;100517.16;;;6.36;100.00
49055;BME280;35405;52.344;14.530;2023-02-18T10:25:58;100512.03;;;6.50;100.00
49055;BME280;35405;52.344;14.530;2023-02-18T10:28:26;100501.53;;;6.63;100.00
49055;BME280;35405;52.344;14.530;2023-02-18T10:30:58;100490.44;;;6.70;100.00
49055;BME280;35405;52.344;14.530;2023-02-18T10:35:51;100483.97;;;6.71;100.00
49055;BME280;35405;52.344;14.530;2023-02-18T10:43:21;100459.06;;;6.28;100.00
49055;BME280;35405;52.344;14.530;2023-02-18T10:45:49;100449.34;;;6.17;100.00
49055;BME280;35405;52.344;14.530;2023-02-18T10:51:00;100422.88;;;6.24;100.00
49055;BME280;35405;52.344;14.530;2023-02-18T10:53:35;100421.28;;;6.23;100.00
49055;BME280;35405;52.344;14.530;2023-02-18T10:56:00;100413.69;;;6.25;100.00
49055;BME280;35405;52.344;14.530;2023-02-18T11:00:51;100410.22;;;6.50;100.00
49055;BME280;35405;52.344;14.530;2023-02-18T11:03:18;100397.75;;;6.54;100.00
49055;BME280;35405;52.344;14.530;2023-02-18T11:05:44;100376.69;;;6.46;100.00
49055;BME280;35405;52.344;14.530;2023-02-18T11:08:20;100367.25;;;6.28;100.00
49055;BME280;35405;52.344;14.530;2023-02-18T11:10:46;100354.81;;;6.43;100.00
49055;BME280;35405;52.344;14.530;2023-02-18T11:13:14;100337.00;;;6.36;100.00
49055;BME280;35405;52.344;14.530;2023-02-18T11:15:52;100325.38;;;6.36;100.00
49055;BME280;35405;52.344;14.530;2023-02-18T11:20:57;100320.81;;;6.01;100.00
49055;BME280;35405;52.344;14.530;2023-02-18T11:23:22;100309.72;;;5.92;100.00
49055;BME280;35405;52.344;14.530;2023-02-18T11:25:53;100307.28;;;5.80;100.00
49055;BME280;35405;52.344;14.530;2023-02-18T11:30:46;100287.84;;;5.63;100.00
49055;BME280;35405;52.344;14.530;2023-02-18T11:35:46;100251.69;;;5.48;100.00
49055;BME280;35405;52.344;14.530;2023-02-18T11:38:32;100263.53;;;5.42;100.00
49055;BME280;35405;52.344;14.530;2023-02-18T11:41:08;100243.59;;;5.43;100.00
49055;BME280;35405;52.344;14.530;2023-02-18T11:43:34;100221.72;;;5.35;100.00
49055;BME280;35405;52.344;14.530;2023-02-18T11:46:10;100210.66;;;5.41;100.00
49055;BME280;35405;52.344;14.530;2023-02-18T11:48:35;100193.16;;;5.44;100.00
49055;BME280;35405;52.344;14.530;2023-02-18T11:51:01;100191.53;;;5.79;100.00
49055;BME280;35405;52.344;14.530;2023-02-18T11:53:30;100178.81;;;5.89;100.00
49055;BME280;35405;52.344;14.530;2023-02-18T11:55:57;100170.47;;;5.86;100.00
49055;BME280;35405;52.344;14.530;2023-02-18T11:58:23;100163.72;;;5.83;100.00
49055;BME280;35405;52.344;14.530;2023-02-18T12:00:49;100149.97;;;5.90;100.00
49055;BME280;35405;52.344;14.530;2023-02-18T12:05:41;100140.25;;;5.68;100.00
49055;BME280;35405;52.344;14.530;2023-02-18T12:08:12;100129.22;;;5.65;100.00
49055;BME280;35405;52.344;14.530;2023-02-18T12:13:16;100107.63;;;5.65;100.00
